sensor_id;sensor_type;location;lat;lon;timestamp;pressure;altitude;pressure_sealevel;temperature;humidity
39789;BME280;25478;42.626;23.320;2022-07-01T00:01:27;93175.94;;;19.94;65.01
39789;BME280;25478;42.626;23.320;2022-07-01T00:03:53;93175.84;;;19.85;64.98
39789;BME280;25478;42.626;23.320;2022-07-01T00:06:19;93180.84;;;19.83;65.27
39789;BME280;25478;42.626;23.320;2022-07-01T00:08:45;93173.59;;;19.71;66.09
39789;BME280;25478;42.626;23.320;2022-07-01T00:11:11;93186.00;;;19.77;66.16
39789;BME280;25478;42.626;23.320;2022-07-01T00:13:37;93173.91;;;19.73;66.74
39789;BME280;25478;42.626;23.320;2022-07-01T00:16:02;93178.22;;;19.70;67.11
39789;BME280;25478;42.626;23.320;2022-07-01T00:18:29;93178.00;;;19.64;67.36
39789;BME280;25478;42.626;23.320;2022-07-01T00:20:54;93179.59;;;19.62;67.74
39789;BME280;25478;42.626;23.320;2022-07-01T00:23:20;93184.94;;;19.62;67.51
39789;BME280;25478;42.626;23.320;2022-07-01T00:25:46;93182.59;;;19.64;67.63
39789;BME280;25478;42.626;23.320;2022-07-01T00:28:11;93183.31;;;19.64;67.98
39789;BME280;25478;42.626;23.320;2022-07-01T00:30:37;93193.25;;;19.64;68.12
39789;BME280;25478;42.626;23.320;2022-07-01T00:33:03;93171.75;;;19.42;68.40
39789;BME280;25478;42.626;23.320;2022-07-01T00:35:29;93193.47;;;19.57;68.91
39789;BME280;25478;42.626;23.320;2022-07-01T00:37:55;93194.31;;;19.54;69.40
39789;BME280;25478;42.626;23.320;2022-07-01T00:40:21;93195.91;;;19.51;70.07
39789;BME280;25478;42.626;23.320;2022-07-01T00:42:46;93196.00;;;19.48;70.55
39789;BME280;25478;42.626;23.320;2022-07-01T00:45:12;93188.13;;;19.44;70.87
39789;BME280;25478;42.626;23.320;2022-07-01T00:47:41;93195.78;;;19.42;71.50
39789;BME280;25478;42.626;23.320;2022-07-01T00:50:12;93183.72;;;19.37;71.94
39789;BME280;25478;42.626;23.320;2022-07-01T00:52:39;93184.59;;;19.34;72.76
39789;BME280;25478;42.626;23.320;2022-07-01T00:55:07;93180.28;;;19.24;73.09
39789;BME280;25478;42.626;23.320;2022-07-01T00:57:35;93190.88;;;19.28;73.40
39789;BME280;25478;42.626;23.320;2022-07-01T01:00:04;93198.22;;;19.24;73.64
39789;BME280;25478;42.626;23.320;2022-07-01T01:02:30;93198.34;;;19.20;74.41
39789;BME280;25478;42.626;23.320;2022-07-01T01:04:56;93192.03;;;19.14;75.01
39789;BME280;25478;42.626;23.320;2022-07-01T01:07:22;93202.28;;;19.16;75.46
39789;BME280;25478;42.626;23.320;2022-07-01T01:09:48;93199.72;;;19.12;76.09
39789;BME280;25478;42.626;23.320;2022-07-01T01:12:14;93204.75;;;19.10;76.68
39789;BME280;25478;42.626;23.320;2022-07-01T01:14:47;93204.81;;;19.06;76.47
39789;BME280;25478;42.626;23.320;2022-07-01T01:17:15;93196.25;;;18.99;76.81
39789;BME280;25478;42.626;23.320;2022-07-01T01:19:41;93199.59;;;19.03;76.82
39789;BME280;25478;42.626;23.320;2022-07-01T01:22:08;93198.19;;;18.98;76.80
39789;BME280;25478;42.626;23.320;2022-07-01T01:24:37;93200.97;;;18.95;77.07
39789;BME280;25478;42.626;23.320;2022-07-01T01:27:04;93196.06;;;18.93;77.74
39789;BME280;25478;42.626;23.320;2022-07-01T01:29:30;93201.03;;;18.91;78.06
39789;BME280;25478;42.626;23.320;2022-07-01T01:31:56;93199.22;;;18.88;77.92
39789;BME280;25478;42.626;23.320;2022-07-01T01:34:22;93194.53;;;18.79;78.35
39789;BME280;25478;42.626;23.320;2022-07-01T01:36:47;93190.88;;;18.73;78.65
39789;BME280;25478;42.626;23.320;2022-07-01T01:39:13;93189.47;;;18.69;79.18
39789;BME280;25478;42.626;23.320;2022-07-01T01:41:42;93193.38;;;18.64;79.09
39789;BME280;25478;42.626;23.320;2022-07-01T01:44:08;93167.19;;;18.46;79.06
39789;BME280;25478;42.626;23.320;2022-07-01T01:46:34;93183.63;;;18.57;79.18
39789;BME280;25478;42.626;23.320;2022-07-01T01:49:02;93196.88;;;18.61;79.00
39789;BME280;25478;42.626;23.320;2022-07-01T01:51:28;93207.97;;;18.60;79.42
39789;BME280;25478;42.626;23.320;2022-07-01T01:53:54;93220.97;;;18.57;79.95
39789;BME280;25478;42.626;23.320;2022-07-01T01:56:20;93213.81;;;18.54;80.04
39789;BME280;25478;42.626;23.320;2022-07-01T01:58:45;93209.41;;;18.48;80.13
39789;BME280;25478;42.626;23.320;2022-07-01T02:01:14;93193.88;;;18.30;80.37
39789;BME280;25478;42.626;23.320;2022-07-01T02:03:40;93208.75;;;18.44;80.81
39789;BME280;25478;42.626;23.320;2022-07-01T02:06:08;93206.91;;;18.41;80.81
39789;BME280;25478;42.626;23.320;2022-07-01T02:08:39;93211.94;;;18.39;80.79
39789;BME280;25478;42.626;23.320;2022-07-01T02:11:06;93208.19;;;18.36;81.11
39789;BME280;25478;42.626;23.320;2022-07-01T02:13:32;93204.22;;;18.28;80.74
39789;BME280;25478;42.626;23.320;2022-07-01T02:15:58;93210.94;;;18.33;80.85
39789;BME280;25478;42.626;23.320;2022-07-01T02:18:24;93216.38;;;18.29;81.03
39789;BME280;25478;42.626;23.320;2022-07-01T02:20:50;93214.97;;;18.24;81.33
39789;BME280;25478;42.626;23.320;2022-07-01T02:23:16;93143.72;;;17.63;81.45
39789;BME280;25478;42.626;23.320;2022-07-01T02:25:42;93226.28;;;18.12;81.84
39789;BME280;25478;42.626;23.320;2022-07-01T02:28:07;93229.78;;;18.09;81.96
39789;BME280;25478;42.626;23.320;2022-07-01T02:30:34;93240.09;;;18.07;82.13
39789;BME280;25478;42.626;23.320;2022-07-01T02:33:06;93210.47;;;17.89;82.54
39789;BME280;25478;42.626;23.320;2022-07-01T02:35:34;93234.13;;;18.03;82.47
39789;BME280;25478;42.626;23.320;2022-07-01T02:37:59;93234.97;;;18.00;82.29
39789;BME280;25478;42.626;23.320;2022-07-01T02:40:25;93245.19;;;18.02;82.19
39789;BME280;25478;42.626;23.320;2022-07-01T02:42:50;93235.44;;;17.95;82.12
39789;BME280;25478;42.626;23.320;2022-07-01T02:45:16;93243.34;;;17.98;82.07
39789;BME280;25478;42.626;23.320;2022-07-01T02:47:42;93245.69;;;17.96;82.34
39789;BME280;25478;42.626;23.320;2022-07-01T02:50:09;93252.19;;;17.95;82.76
39789;BME280;25478;42.626;23.320;2022-07-01T02:52:36;93248.44;;;17.93;82.94
39789;BME280;25478;42.626;23.320;2022-07-01T02:55:04;93230.84;;;17.79;83.15
39789;BME280;25478;42.626;23.320;2022-07-01T02:57:31;93252.00;;;17.86;83.28
39789;BME280;25478;42.626;23.320;2022-07-01T02:59:56;93261.91;;;17.86;83.50
39789;BME280;25478;42.626;23.320;2022-07-01T03:02:22;93263.06;;;17.85;83.65
39789;BME280;25478;42.626;23.320;2022-07-01T03:04:49;93263.06;;;17.85;83.73
39789;BME280;25478;42.626;23.320;2022-07-01T03:07:16;93261.16;;;17.85;83.70
39789;BME280;25478;42.626;23.320;2022-07-01T03:09:42;93255.41;;;17.87;83.46
39789;BME280;25478;42.626;23.320;2022-07-01T03:12:09;93255.09;;;17.85;83.41
39789;BME280;25478;42.626;23.320;2022-07-01T03:15:05;93270.91;;;17.92;83.22
39789;BME280;25478;42.626;23.320;2022-07-01T03:17:33;93277.31;;;17.94;83.16
39789;BME280;25478;42.626;23.320;2022-07-01T03:20:00;93282.47;;;18.02;82.73
39789;BME280;25478;42.626;23.320;2022-07-01T03:22:30;93279.66;;;18.09;82.47
39789;BME280;25478;42.626;23.320;2022-07-01T03:24:56;93271.56;;;18.12;82.53
39789;BME280;25478;42.626;23.320;2022-07-01T03:27:22;93265.41;;;18.15;82.51
39789;BME280;25478;42.626;23.320;2022-07-01T03:29:48;93269.59;;;18.16;82.54
39789;BME280;25478;42.626;23.320;2022-07-01T03:32:15;93269.16;;;18.18;82.87
39789;BME280;25478;42.626;23.320;2022-07-01T03:34:42;93274.41;;;18.21;82.70
39789;BME280;25478;42.626;23.320;2022-07-01T03:37:10;93255.16;;;18.14;82.29
39789;BME280;25478;42.626;23.320;2022-07-01T03:39:37;93273.00;;;18.33;82.32
39789;BME280;25478;42.626;23.320;2022-07-01T03:42:03;93277.81;;;18.38;82.35
39789;BME280;25478;42.626;23.320;2022-07-01T03:44:30;93277.63;;;18.45;82.47
39789;BME280;25478;42.626;23.320;2022-07-01T03:46:56;93277.88;;;18.51;82.37
39789;BME280;25478;42.626;23.320;2022-07-01T03:49:22;93264.88;;;18.53;82.31
39789;BME280;25478;42.626;23.320;2022-07-01T03:51:48;93260.19;;;18.57;82.25
39789;BME280;25478;42.626;23.320;2022-07-01T03:54:14;93270.13;;;18.73;82.37
39789;BME280;25478;42.626;23.320;2022-07-01T03:59:27;93246.78;;;18.77;82.52
39789;BME280;25478;42.626;23.320;2022-07-01T04:01:56;93257.41;;;18.93;82.26
39789;BME280;25478;42.626;23.320;2022-07-01T04:04:23;93264.50;;;19.12;81.56
39789;BME280;25478;42.626;23.320;2022-07-01T04:06:49;93267.72;;;19.20;80.85
39789;BME280;25478;42.626;23.320;2022-07-01T04:09:16;93275.97;;;19.26;80.29
39789;BME280;25478;42.626;23.320;2022-07-01T04:11:42;93269.34;;;19.30;79.86
39789;BME280;25478;42.626;23.320;2022-07-01T04:14:09;93263.81;;;19.37;78.89
39789;BME280;25478;42.626;23.320;2022-07-01T04:16:36;93253.00;;;19.28;77.88
39789;BME280;25478;42.626;23.320;2022-07-01T04:19:02;93279.75;;;19.54;77.48
39789;BME280;25478;42.626;23.320;2022-07-01T04:21:27;93280.31;;;19.61;77.29
39789;BME280;25478;42.626;23.320;2022-07-01T04:24:11;93292.38;;;19.66;77.19
39789;BME280;25478;42.626;23.320;2022-07-01T04:26:42;93293.03;;;19.70;76.89
39789;BME280;25478;42.626;23.320;2022-07-01T04:29:09;93278.41;;;19.62;75.93
39789;BME280;25478;42.626;23.320;2022-07-01T04:31:36;93298.19;;;19.77;75.11
39789;BME280;25478;42.626;23.320;2022-07-01T04:34:02;93295.41;;;19.81;74.47
39789;BME280;25478;42.626;23.320;2022-07-01T04:36:27;93294.75;;;19.89;74.36
39789;BME280;25478;42.626;23.320;2022-07-01T04:38:53;93299.88;;;20.09;73.40
39789;BME280;25478;42.626;23.320;2022-07-01T04:41:19;93294.63;;;20.31;72.66
39789;BME280;25478;42.626;23.320;2022-07-01T04:44:03;93284.88;;;20.63;72.28
39789;BME280;25478;42.626;23.320;2022-07-01T04:46:29;93284.03;;;21.09;70.42
39789;BME280;25478;42.626;23.320;2022-07-01T04:48:54;93279.22;;;21.39;69.22
39789;BME280;25478;42.626;23.320;2022-07-01T04:51:20;93277.19;;;21.52;69.15
39789;BME280;25478;42.626;23.320;2022-07-01T04:53:46;93286.22;;;21.68;68.55
39789;BME280;25478;42.626;23.320;2022-07-01T04:56:11;93284.47;;;21.74;69.48
39789;BME280;25478;42.626;23.320;2022-07-01T04:58:37;93274.00;;;21.67;69.95
39789;BME280;25478;42.626;23.320;2022-07-01T05:01:02;93284.25;;;21.90;69.86
39789;BME280;25478;42.626;23.320;2022-07-01T05:03:28;93282.44;;;22.18;68.63
39789;BME280;25478;42.626;23.320;2022-07-01T05:05:54;93289.69;;;22.76;66.80
39789;BME280;25478;42.626;23.320;2022-07-01T05:08:19;93284.50;;;23.27;63.99
39789;BME280;25478;42.626;23.320;2022-07-01T05:10:45;93279.63;;;23.86;61.70
39789;BME280;25478;42.626;23.320;2022-07-01T05:13:10;93279.91;;;24.31;59.56
39789;BME280;25478;42.626;23.320;2022-07-01T05:15:36;93291.28;;;25.07;57.39
39789;BME280;25478;42.626;23.320;2022-07-01T05:18:01;93294.72;;;25.75;54.98
39789;BME280;25478;42.626;23.320;2022-07-01T05:20:46;93292.47;;;26.38;53.46
39789;BME280;25478;42.626;23.320;2022-07-01T05:23:29;93254.75;;;26.24;54.92
39789;BME280;25478;42.626;23.320;2022-07-01T05:25:55;93293.41;;;26.71;52.64
39789;BME280;25478;42.626;23.320;2022-07-01T05:28:20;93298.69;;;26.80;51.29
39789;BME280;25478;42.626;23.320;2022-07-01T05:30:46;93298.81;;;26.91;50.86
39789;BME280;25478;42.626;23.320;2022-07-01T05:33:11;93291.66;;;26.88;50.67
39789;BME280;25478;42.626;23.320;2022-07-01T05:35:37;93299.06;;;27.08;50.34
39789;BME280;25478;42.626;23.320;2022-07-01T05:38:02;93297.34;;;27.10;50.00
39789;BME280;25478;42.626;23.320;2022-07-01T05:40:28;93301.06;;;27.13;50.16
39789;BME280;25478;42.626;23.320;2022-07-01T05:42:54;93295.09;;;27.29;49.93
39789;BME280;25478;42.626;23.320;2022-07-01T05:45:19;93287.63;;;27.44;48.81
39789;BME280;25478;42.626;23.320;2022-07-01T05:47:45;93292.88;;;27.54;48.32
39789;BME280;25478;42.626;23.320;2022-07-01T05:50:10;93293.28;;;27.67;47.91
39789;BME280;25478;42.626;23.320;2022-07-01T05:52:36;93255.94;;;27.45;47.97
39789;BME280;25478;42.626;23.320;2022-07-01T05:55:02;93292.31;;;27.70;48.26
39789;BME280;25478;42.626;23.320;2022-07-01T05:57:28;93293.53;;;27.69;48.12
39789;BME280;25478;42.626;23.320;2022-07-01T05:59:53;93294.44;;;27.60;47.98
39789;BME280;25478;42.626;23.320;2022-07-01T06:02:18;93299.56;;;27.58;47.99
39789;BME280;25478;42.626;23.320;2022-07-01T06:04:44;93300.56;;;27.61;47.91
39789;BME280;25478;42.626;23.320;2022-07-01T06:07:10;93285.50;;;27.54;47.95
39789;BME280;25478;42.626;23.320;2022-07-01T06:09:38;93293.47;;;27.63;47.49
39789;BME280;25478;42.626;23.320;2022-07-01T06:12:05;93301.66;;;27.69;47.40
39789;BME280;25478;42.626;23.320;2022-07-01T06:14:31;93300.03;;;27.57;47.29
39789;BME280;25478;42.626;23.320;2022-07-01T06:16:57;93305.41;;;27.51;47.54
39789;BME280;25478;42.626;23.320;2022-07-01T06:19:22;93311.06;;;27.53;47.64
39789;BME280;25478;42.626;23.320;2022-07-01T06:21:47;93306.72;;;27.61;47.24
39789;BME280;25478;42.626;23.320;2022-07-01T06:24:13;93309.16;;;27.59;46.97
39789;BME280;25478;42.626;23.320;2022-07-01T06:26:39;93313.97;;;27.70;47.10
39789;BME280;25478;42.626;23.320;2022-07-01T06:29:05;93319.13;;;27.99;46.57
39789;BME280;25478;42.626;23.320;2022-07-01T06:31:30;93317.19;;;28.05;46.88
39789;BME280;25478;42.626;23.320;2022-07-01T06:33:59;93315.50;;;28.08;46.77
39789;BME280;25478;42.626;23.320;2022-07-01T06:36:25;93316.25;;;28.09;46.62
39789;BME280;25478;42.626;23.320;2022-07-01T06:38:51;93315.16;;;28.26;45.95
39789;BME280;25478;42.626;23.320;2022-07-01T06:41:16;93308.25;;;28.25;46.65
39789;BME280;25478;42.626;23.320;2022-07-01T06:43:59;93322.44;;;28.46;45.94
39789;BME280;25478;42.626;23.320;2022-07-01T06:46:26;93314.91;;;28.62;44.88
39789;BME280;25478;42.626;23.320;2022-07-01T06:48:51;93309.75;;;28.64;45.35
39789;BME280;25478;42.626;23.320;2022-07-01T06:51:17;93300.22;;;28.79;44.89
39789;BME280;25478;42.626;23.320;2022-07-01T06:53:43;93310.22;;;29.05;44.52
39789;BME280;25478;42.626;23.320;2022-07-01T06:56:11;93305.63;;;29.28;43.75
39789;BME280;25478;42.626;23.320;2022-07-01T06:58:36;93300.88;;;29.17;43.59
39789;BME280;25478;42.626;23.320;2022-07-01T07:01:03;93308.56;;;29.19;43.55
39789;BME280;25478;42.626;23.320;2022-07-01T07:03:29;93309.72;;;29.06;43.72
39789;BME280;25478;42.626;23.320;2022-07-01T07:05:55;93301.25;;;28.87;43.58
39789;BME280;25478;42.626;23.320;2022-07-01T07:08:20;93312.28;;;28.78;44.24
39789;BME280;25478;42.626;23.320;2022-07-01T07:10:46;93310.81;;;28.77;45.05
39789;BME280;25478;42.626;23.320;2022-07-01T07:13:11;93284.13;;;28.65;45.09
39789;BME280;25478;42.626;23.320;2022-07-01T07:15:37;93318.09;;;29.03;44.96
39789;BME280;25478;42.626;23.320;2022-07-01T07:18:07;93302.06;;;28.94;44.66
39789;BME280;25478;42.626;23.320;2022-07-01T07:20:33;93313.41;;;29.03;44.27
39789;BME280;25478;42.626;23.320;2022-07-01T07:22:59;93323.06;;;29.15;44.25
39789;BME280;25478;42.626;23.320;2022-07-01T07:25:25;93318.94;;;29.31;43.95
39789;BME280;25478;42.626;23.320;2022-07-01T07:27:50;93312.78;;;29.36;44.37
39789;BME280;25478;42.626;23.320;2022-07-01T07:30:16;93315.72;;;29.33;44.25
39789;BME280;25478;42.626;23.320;2022-07-01T07:32:42;93318.44;;;29.27;44.13
39789;BME280;25478;42.626;23.320;2022-07-01T07:35:09;93302.13;;;29.16;43.78
39789;BME280;25478;42.626;23.320;2022-07-01T07:37:34;93298.66;;;29.15;44.36
39789;BME280;25478;42.626;23.320;2022-07-01T07:40:01;93325.13;;;29.37;43.96
39789;BME280;25478;42.626;23.320;2022-07-01T07:42:29;93323.19;;;29.49;43.35
39789;BME280;25478;42.626;23.320;2022-07-01T07:44:55;93315.59;;;29.64;43.48
39789;BME280;25478;42.626;23.320;2022-07-01T07:47:20;93319.78;;;29.60;42.87
39789;BME280;25478;42.626;23.320;2022-07-01T07:49:46;93318.97;;;29.48;43.31
39789;BME280;25478;42.626;23.320;2022-07-01T07:52:12;93311.84;;;29.51;43.23
39789;BME280;25478;42.626;23.320;2022-07-01T07:54:38;93312.81;;;29.48;43.62
39789;BME280;25478;42.626;23.320;2022-07-01T07:57:04;93313.84;;;29.56;43.84
39789;BME280;25478;42.626;23.320;2022-07-01T07:59:30;93310.38;;;29.55;43.60
39789;BME280;25478;42.626;23.320;2022-07-01T08:01:55;93312.56;;;29.46;43.59
39789;BME280;25478;42.626;23.320;2022-07-01T08:04:21;93307.88;;;29.35;44.28
39789;BME280;25478;42.626;23.320;2022-07-01T08:06:47;93306.34;;;29.34;44.15
39789;BME280;25478;42.626;23.320;2022-07-01T08:09:12;93310.06;;;29.31;43.80
39789;BME280;25478;42.626;23.320;2022-07-01T08:11:38;93308.53;;;29.24;44.53
39789;BME280;25478;42.626;23.320;2022-07-01T08:14:04;93309.06;;;29.28;44.25
39789;BME280;25478;42.626;23.320;2022-07-01T08:16:30;93307.34;;;29.31;44.04
39789;BME280;25478;42.626;23.320;2022-07-01T08:18:55;93302.41;;;29.29;43.91
39789;BME280;25478;42.626;23.320;2022-07-01T08:21:21;93301.91;;;29.20;44.21
39789;BME280;25478;42.626;23.320;2022-07-01T08:23:47;93276.97;;;29.10;43.71
39789;BME280;25478;42.626;23.320;2022-07-01T08:26:13;93294.03;;;29.27;43.92
39789;BME280;25478;42.626;23.320;2022-07-01T08:28:39;93293.28;;;29.32;44.10
39789;BME280;25478;42.626;23.320;2022-07-01T08:31:04;93295.78;;;29.41;44.20
39789;BME280;25478;42.626;23.320;2022-07-01T08:33:30;93295.31;;;29.49;44.92
39789;BME280;25478;42.626;23.320;2022-07-01T08:35:56;93294.38;;;29.52;44.53
39789;BME280;25478;42.626;23.320;2022-07-01T08:38:22;93291.16;;;29.53;44.56
39789;BME280;25478;42.626;23.320;2022-07-01T08:40:47;93293.38;;;29.55;43.13
39789;BME280;25478;42.626;23.320;2022-07-01T08:43:13;93277.53;;;29.36;43.50
39789;BME280;25478;42.626;23.320;2022-07-01T08:45:38;93297.25;;;29.42;42.96
39789;BME280;25478;42.626;23.320;2022-07-01T08:48:05;93299.72;;;29.35;42.77
39789;BME280;25478;42.626;23.320;2022-07-01T08:50:34;93304.38;;;29.34;42.11
39789;BME280;25478;42.626;23.320;2022-07-01T08:53:00;93303.88;;;29.30;42.08
39789;BME280;25478;42.626;23.320;2022-07-01T08:55:26;93303.41;;;29.26;41.97
39789;BME280;25478;42.626;23.320;2022-07-01T08:57:52;93299.69;;;29.24;42.37
39789;BME280;25478;42.626;23.320;2022-07-01T09:00:18;93278.97;;;29.21;42.58
39789;BME280;25478;42.626;23.320;2022-07-01T09:05:25;93292.78;;;29.34;42.89
39789;BME280;25478;42.626;23.320;2022-07-01T09:08:02;93304.44;;;29.46;43.45
39789;BME280;25478;42.626;23.320;2022-07-01T09:10:29;93299.03;;;29.51;43.76
39789;BME280;25478;42.626;23.320;2022-07-01T09:12:57;93299.53;;;29.55;43.00
39789;BME280;25478;42.626;23.320;2022-07-01T09:15:29;93305.94;;;29.58;41.13
39789;BME280;25478;42.626;23.320;2022-07-01T09:18:29;93297.81;;;29.58;40.27
39789;BME280;25478;42.626;23.320;2022-07-01T09:20:48;93299.56;;;29.61;39.18
39789;BME280;25478;42.626;23.320;2022-07-01T09:23:15;93299.81;;;29.63;37.96
39789;BME280;25478;42.626;23.320;2022-07-01T09:25:46;93304.47;;;29.68;38.21
39789;BME280;25478;42.626;23.320;2022-07-01T09:30:40;93301.78;;;29.62;38.47
39789;BME280;25478;42.626;23.320;2022-07-01T09:33:12;93299.31;;;29.64;39.00
39789;BME280;25478;42.626;23.320;2022-07-01T09:35:39;93292.66;;;29.65;39.23
39789;BME280;25478;42.626;23.320;2022-07-01T09:38:06;93287.97;;;29.66;39.02
39789;BME280;25478;42.626;23.320;2022-07-01T09:40:55;93288.44;;;29.59;38.95
39789;BME280;25478;42.626;23.320;2022-07-01T09:43:28;93288.16;;;29.46;39.77
39789;BME280;25478;42.626;23.320;2022-07-01T09:46:04;93286.91;;;29.47;39.72
39789;BME280;25478;42.626;23.320;2022-07-01T09:51:03;93283.22;;;29.38;39.57
39789;BME280;25478;42.626;23.320;2022-07-01T09:53:29;93281.97;;;29.39;39.11
39789;BME280;25478;42.626;23.320;2022-07-01T09:55:55;93280.25;;;29.36;39.42
39789;BME280;25478;42.626;23.320;2022-07-01T09:58:20;93264.69;;;29.26;39.33
39789;BME280;25478;42.626;23.320;2022-07-01T10:00:46;93274.84;;;29.36;39.41
39789;BME280;25478;42.626;23.320;2022-07-01T10:03:13;93271.38;;;29.41;38.97
39789;BME280;25478;42.626;23.320;2022-07-01T10:13:44;93272.19;;;29.76;34.99
39789;BME280;25478;42.626;23.320;2022-07-01T10:16:11;93281.06;;;29.82;35.81
39789;BME280;25478;42.626;23.320;2022-07-01T10:18:37;93269.22;;;29.90;35.92
39789;BME280;25478;42.626;23.320;2022-07-01T10:21:03;93272.19;;;29.98;35.87
39789;BME280;25478;42.626;23.320;2022-07-01T10:23:41;93266.28;;;30.05;36.77
39789;BME280;25478;42.626;23.320;2022-07-01T10:26:08;93265.81;;;30.12;36.03
39789;BME280;25478;42.626;23.320;2022-07-01T10:31:12;93262.31;;;30.17;34.62
39789;BME280;25478;42.626;23.320;2022-07-01T10:33:57;93261.34;;;30.20;33.11
39789;BME280;25478;42.626;23.320;2022-07-01T10:36:34;93245.81;;;30.21;32.35
39789;BME280;25478;42.626;23.320;2022-07-01T10:41:30;93247.75;;;30.37;29.02
39789;BME280;25478;42.626;23.320;2022-07-01T10:43:57;93245.75;;;30.43;29.38
39789;BME280;25478;42.626;23.320;2022-07-01T10:46:42;93241.06;;;30.44;28.66
39789;BME280;25478;42.626;23.320;2022-07-01T10:49:19;93231.91;;;30.47;28.30
39789;BME280;25478;42.626;23.320;2022-07-01T10:51:48;93234.13;;;30.54;28.66
39789;BME280;25478;42.626;23.320;2022-07-01T10:59:46;93226.47;;;30.52;28.91
39789;BME280;25478;42.626;23.320;2022-07-01T11:02:29;93243.22;;;30.62;28.74
39789;BME280;25478;42.626;23.320;2022-07-01T11:04:57;93242.72;;;30.64;28.81
39789;BME280;25478;42.626;23.320;2022-07-01T11:07:24;93234.34;;;30.67;29.24
39789;BME280;25478;42.626;23.320;2022-07-01T11:09:50;93233.09;;;30.63;30.37
39789;BME280;25478;42.626;23.320;2022-07-01T11:12:16;93240.03;;;30.69;29.61
39789;BME280;25478;42.626;23.320;2022-07-01T11:14:43;93239.03;;;30.72;29.94
39789;BME280;25478;42.626;23.320;2022-07-01T11:17:09;93233.56;;;30.78;30.61
39789;BME280;25478;42.626;23.320;2022-07-01T11:19:35;93235.75;;;30.85;30.06
39789;BME280;25478;42.626;23.320;2022-07-01T11:22:01;93236.22;;;30.95;29.70
39789;BME280;25478;42.626;23.320;2022-07-01T11:24:28;93231.72;;;31.03;29.79
39789;BME280;25478;42.626;23.320;2022-07-01T11:27:05;93231.47;;;31.06;29.33
39789;BME280;25478;42.626;23.320;2022-07-01T11:29:32;93230.75;;;31.00;28.17
39789;BME280;25478;42.626;23.320;2022-07-01T11:31:57;93235.72;;;30.96;28.09
39789;BME280;25478;42.626;23.320;2022-07-01T11:34:27;93220.88;;;30.97;27.86
39789;BME280;25478;42.626;23.320;2022-07-01T11:36:54;93230.22;;;31.07;27.63
39789;BME280;25478;42.626;23.320;2022-07-01T11:39:38;93217.34;;;31.08;27.03
39789;BME280;25478;42.626;23.320;2022-07-01T11:42:07;93223.75;;;31.22;26.71
39789;BME280;25478;42.626;23.320;2022-07-01T11:44:35;93220.50;;;31.29;27.21
39789;BME280;25478;42.626;23.320;2022-07-01T11:47:06;93217.47;;;31.38;27.53
39789;BME280;25478;42.626;23.320;2022-07-01T11:49:33;93213.94;;;31.43;27.12
39789;BME280;25478;42.626;23.320;2022-07-01T11:52:01;93211.97;;;31.44;26.36
39789;BME280;25478;42.626;23.320;2022-07-01T11:54:27;93217.91;;;31.42;26.72
39789;BME280;25478;42.626;23.320;2022-07-01T11:56:53;93203.34;;;31.40;26.19
39789;BME280;25478;42.626;23.320;2022-07-01T11:59:19;93212.16;;;31.51;25.87
39789;BME280;25478;42.626;23.320;2022-07-01T12:01:55;93209.63;;;31.59;25.84
39789;BME280;25478;42.626;23.320;2022-07-01T12:04:20;93198.97;;;31.61;25.19
39789;BME280;25478;42.626;23.320;2022-07-01T12:06:46;93199.41;;;31.71;24.40
39789;BME280;25478;42.626;23.320;2022-07-01T12:09:17;93190.03;;;31.66;24.36
39789;BME280;25478;42.626;23.320;2022-07-01T12:11:45;93203.56;;;31.77;24.75
39789;BME280;25478;42.626;23.320;2022-07-01T12:14:11;93175.16;;;31.73;25.19
39789;BME280;25478;42.626;23.320;2022-07-01T12:16:40;93201.50;;;31.89;25.11
39789;BME280;25478;42.626;23.320;2022-07-01T12:19:06;93201.75;;;31.91;24.63
39789;BME280;25478;42.626;23.320;2022-07-01T12:21:48;93197.81;;;31.86;25.09
39789;BME280;25478;42.626;23.320;2022-07-01T12:24:15;93198.09;;;31.83;25.26
39789;BME280;25478;42.626;23.320;2022-07-01T12:27:14;93191.91;;;31.82;26.04
39789;BME280;25478;42.626;23.320;2022-07-01T12:32:06;93201.16;;;31.68;26.73
39789;BME280;25478;42.626;23.320;2022-07-01T12:34:46;93197.66;;;31.73;26.61
39789;BME280;25478;42.626;23.320;2022-07-01T12:37:13;93193.19;;;31.76;26.93
39789;BME280;25478;42.626;23.320;2022-07-01T12:44:52;93183.44;;;31.56;26.66
39789;BME280;25478;42.626;23.320;2022-07-01T12:47:26;93180.66;;;31.61;26.89
39789;BME280;25478;42.626;23.320;2022-07-01T12:52:36;93177.09;;;31.78;26.59
39789;BME280;25478;42.626;23.320;2022-07-01T12:55:21;93170.59;;;31.86;26.37
39789;BME280;25478;42.626;23.320;2022-07-01T12:57:48;93179.34;;;32.04;26.93
39789;BME280;25478;42.626;23.320;2022-07-01T13:00:15;93179.25;;;32.15;26.45
39789;BME280;25478;42.626;23.320;2022-07-01T13:02:41;93177.13;;;32.27;27.03
39789;BME280;25478;42.626;23.320;2022-07-01T13:05:07;93168.13;;;32.37;26.70
39789;BME280;25478;42.626;23.320;2022-07-01T13:07:33;93174.97;;;32.44;26.32
39789;BME280;25478;42.626;23.320;2022-07-01T13:09:58;93169.78;;;32.46;26.63
39789;BME280;25478;42.626;23.320;2022-07-01T13:12:24;93165.13;;;32.41;29.14
39789;BME280;25478;42.626;23.320;2022-07-01T13:14:49;93163.72;;;32.29;31.56
39789;BME280;25478;42.626;23.320;2022-07-01T13:17:15;93162.44;;;32.11;33.09
39789;BME280;25478;42.626;23.320;2022-07-01T13:19:41;93168.97;;;32.02;33.72
39789;BME280;25478;42.626;23.320;2022-07-01T13:22:06;93181.91;;;31.96;33.63
39789;BME280;25478;42.626;23.320;2022-07-01T13:24:32;93178.53;;;31.84;33.98
39789;BME280;25478;42.626;23.320;2022-07-01T13:26:57;93164.00;;;31.76;34.37
39789;BME280;25478;42.626;23.320;2022-07-01T13:29:23;93179.78;;;31.83;34.34
39789;BME280;25478;42.626;23.320;2022-07-01T13:31:48;93173.38;;;31.75;34.14